Terminal Aerodrome Forecast
Issued by NWS Binghamton, NY

Home | Current Version | Previous Version | Text Only | Print | Product List | Glossary On
Versions: 1 2 3 4 5 6 7 8 9 10 11 12 13 14 15 16 17 18 19 20
770
FTUS41 KBGM 301120
TAFAVP
TAF
KAVP 301120Z 3012/3112 11003KT P6SM BKN090 OVC200
     FM301800 15004KT 6SM -TSRA SCT030CB OVC060
     FM310000 10009KT 4SM -SHRA BR OVC025
      TEMPO 3104/3107 1 1/2SM TSRA BR OVC012CB
     FM310700 12010G15KT 3/4SM +TSRA BR BKN015CB OVC035=

USA.gov is the U.S. government's official web portal to all federal, state and local government web resources and services.